Portada
METAR-TAF:

METAR-TAF

Aeropuertos :

Tenerife Sur, España

Aeropuerto de Tenerife Sur

latitud: 28-03N, longitud: 016-34W, altitud: 64 m

Observación

El informe se hizo hace 41 minutos, a las 21:00 UTC
Viento 7 kt del este
Temperatura 21°C
Humedad 73%
Presión 1022 hPa
Visibilidad 10 km o más
Nubes dispersas a una altura de 2500 ft

METAR: GCTS 162100Z 09007KT 9999 SCT025 21/16 Q1022 NOSIG

Hora: 22:41 (21:41 UTC)

Pronóstico

El informe se hizo hace 1 hora y 41 minutos, a las 20:00 UTC
Pronóstico válido del 16 a las 21 UTC al 17 a las 21 UTC
Viento 9 kt del noreste
Visibilidad 10 km o más
Nubes dispersas a una altura de 2500 ft
Temporalmente
del 16 a las 21 UTC al 16 a las 23 UTC
Viento 10 kt del este-sureste
Evolucionando progresivamente
del 17 a las 09 UTC al 17 a las 11 UTC
Viento 15 kt del este-sureste

TAF: GCTS 162000Z 1621/1721 05009KT 9999 SCT025 TX25/1714Z TN18/1706Z TEMPO 1621/1623 12010KT BECMG 1709/1711 11015KT

Observaciones y pronósticos meteorológicos de más de 4000 aeropuertos (mensajes METAR y TAF).

Los puntos amarillos y rojos representan las estaciones disponibles.

Ponga el ratón en el punto deseado para ver el nombre de la estación.

Haga clic para ver las observaciones y los pronósticos meteorológicos.

Para cambiar el mapa : haga clic en los botones verdes con una cruz de color negro para hacer un zoom, en el botón verde con un guión para alejar o en las flechas verdes para mapas adyacentes.


METAR-TAF: